Curtice, Ohio
Current Conditions -  °F | °C
As of 9:53 AM on Wednesday 26 Nov 2014 (Local Time) from KTDZ Reporting Station
Overcast Overcast  
Wind Chill: 30°   Ceiling: 2300
Heat Index: 30°   Visibility: 10mi
Dew Point: 23°   Wind: 3mph
Humidity: 75%   Direction: 310°NW
Pressure: 30.17"   Gusts: NA
Location:  41.62°N, 83.37°W
Report Text: KTDZ 261453Z AUTO 31003KT 10SM OVC023 M01/M05 A3017 RMK AO2 SLP225 T10111050 58000 TSNO
Loading
Personal Weather Stations






























Interactive Weather Map New forecast layout! Learn more

10-Day Weather Forecast

Advertisements
Track Severe Weather on mobile